sensor_id;sensor_type;location;lat;lon;timestamp;P1;durP1;ratioP1;P2;durP2;ratioP2
62724;SDS011;49026;52.600;4.694;2023-02-28T00:01:21;10.45;;;3.03;;
62724;SDS011;49026;52.600;4.694;2023-02-28T00:03:47;9.20;;;2.55;;
62724;SDS011;49026;52.600;4.694;2023-02-28T00:06:13;10.73;;;2.70;;
62724;SDS011;49026;52.600;4.694;2023-02-28T00:08:38;9.90;;;3.40;;
62724;SDS011;49026;52.600;4.694;2023-02-28T00:11:08;8.52;;;2.67;;
62724;SDS011;49026;52.600;4.694;2023-02-28T00:13:36;8.35;;;2.80;;
62724;SDS011;49026;52.600;4.694;2023-02-28T00:16:05;7.85;;;3.08;;
62724;SDS011;49026;52.600;4.694;2023-02-28T00:18:35;12.75;;;3.00;;
62724;SDS011;49026;52.600;4.694;2023-02-28T00:21:01;8.88;;;3.03;;
62724;SDS011;49026;52.600;4.694;2023-02-28T00:23:27;13.25;;;4.50;;
62724;SDS011;49026;52.600;4.694;2023-02-28T00:25:53;37.53;;;13.32;;
62724;SDS011;49026;52.600;4.694;2023-02-28T00:28:18;20.17;;;8.35;;
62724;SDS011;49026;52.600;4.694;2023-02-28T00:30:46;12.25;;;5.03;;
62724;SDS011;49026;52.600;4.694;2023-02-28T00:33:14;13.82;;;4.70;;
62724;SDS011;49026;52.600;4.694;2023-02-28T00:35:40;15.32;;;3.50;;
62724;SDS011;49026;52.600;4.694;2023-02-28T00:38:05;11.52;;;4.63;;
62724;SDS011;49026;52.600;4.694;2023-02-28T00:40:30;11.93;;;3.30;;
62724;SDS011;49026;52.600;4.694;2023-02-28T00:42:56;8.82;;;3.20;;
62724;SDS011;49026;52.600;4.694;2023-02-28T00:45:22;8.90;;;2.60;;
62724;SDS011;49026;52.600;4.694;2023-02-28T00:47:47;7.30;;;2.65;;
62724;SDS011;49026;52.600;4.694;2023-02-28T00:50:18;13.18;;;2.90;;
62724;SDS011;49026;52.600;4.694;2023-02-28T00:52:45;4.82;;;2.45;;
62724;SDS011;49026;52.600;4.694;2023-02-28T00:55:12;10.98;;;2.97;;
62724;SDS011;49026;52.600;4.694;2023-02-28T00:57:40;4.47;;;2.50;;
62724;SDS011;49026;52.600;4.694;2023-02-28T01:00:06;6.38;;;2.25;;
62724;SDS011;49026;52.600;4.694;2023-02-28T01:02:32;6.43;;;2.30;;
62724;SDS011;49026;52.600;4.694;2023-02-28T01:05:03;8.82;;;2.92;;
62724;SDS011;49026;52.600;4.694;2023-02-28T01:07:40;7.82;;;3.15;;
62724;SDS011;49026;52.600;4.694;2023-02-28T01:10:14;11.57;;;3.00;;
62724;SDS011;49026;52.600;4.694;2023-02-28T01:12:51;10.70;;;2.70;;
62724;SDS011;49026;52.600;4.694;2023-02-28T01:15:20;9.93;;;3.13;;
62724;SDS011;49026;52.600;4.694;2023-02-28T01:17:48;7.35;;;2.85;;
62724;SDS011;49026;52.600;4.694;2023-02-28T01:20:20;5.15;;;2.25;;
62724;SDS011;49026;52.600;4.694;2023-02-28T01:25:13;24.98;;;9.20;;
62724;SDS011;49026;52.600;4.694;2023-02-28T01:27:38;18.20;;;4.97;;
62724;SDS011;49026;52.600;4.694;2023-02-28T01:30:04;7.90;;;3.80;;
62724;SDS011;49026;52.600;4.694;2023-02-28T01:32:31;8.05;;;2.70;;
62724;SDS011;49026;52.600;4.694;2023-02-28T01:34:56;10.32;;;3.95;;
62724;SDS011;49026;52.600;4.694;2023-02-28T01:37:22;14.73;;;4.75;;
62724;SDS011;49026;52.600;4.694;2023-02-28T01:39:50;15.15;;;5.30;;
62724;SDS011;49026;52.600;4.694;2023-02-28T01:42:15;15.80;;;4.40;;
62724;SDS011;49026;52.600;4.694;2023-02-28T01:44:57;11.05;;;4.70;;
62724;SDS011;49026;52.600;4.694;2023-02-28T01:47:31;11.48;;;3.63;;
62724;SDS011;49026;52.600;4.694;2023-02-28T01:50:00;10.02;;;2.80;;
62724;SDS011;49026;52.600;4.694;2023-02-28T01:52:29;6.57;;;2.63;;
62724;SDS011;49026;52.600;4.694;2023-02-28T01:54:56;8.43;;;3.35;;
62724;SDS011;49026;52.600;4.694;2023-02-28T01:57:29;15.30;;;5.32;;
62724;SDS011;49026;52.600;4.694;2023-02-28T02:00:04;10.82;;;3.40;;
62724;SDS011;49026;52.600;4.694;2023-02-28T02:02:33;8.98;;;2.65;;
62724;SDS011;49026;52.600;4.694;2023-02-28T02:07:39;8.20;;;2.67;;
62724;SDS011;49026;52.600;4.694;2023-02-28T02:15:32;11.77;;;2.47;;
62724;SDS011;49026;52.600;4.694;2023-02-28T02:18:04;11.18;;;2.13;;
62724;SDS011;49026;52.600;4.694;2023-02-28T02:29:47;13.00;;;2.60;;
62724;SDS011;49026;52.600;4.694;2023-02-28T02:40:51;5.10;;;1.73;;
62724;SDS011;49026;52.600;4.694;2023-02-28T02:43:25;7.90;;;2.28;;
62724;SDS011;49026;52.600;4.694;2023-02-28T02:46:33;9.00;;;2.33;;
62724;SDS011;49026;52.600;4.694;2023-02-28T02:48:55;6.28;;;2.58;;
62724;SDS011;49026;52.600;4.694;2023-02-28T02:51:25;14.32;;;2.40;;
62724;SDS011;49026;52.600;4.694;2023-02-28T02:53:54;9.48;;;2.90;;
62724;SDS011;49026;52.600;4.694;2023-02-28T02:56:23;8.15;;;2.58;;
62724;SDS011;49026;52.600;4.694;2023-02-28T02:58:53;8.48;;;2.38;;
62724;SDS011;49026;52.600;4.694;2023-02-28T03:01:27;42.25;;;3.65;;
62724;SDS011;49026;52.600;4.694;2023-02-28T03:03:56;6.78;;;2.88;;
62724;SDS011;49026;52.600;4.694;2023-02-28T03:06:24;15.23;;;2.67;;
62724;SDS011;49026;52.600;4.694;2023-02-28T03:08:55;9.77;;;2.72;;
62724;SDS011;49026;52.600;4.694;2023-02-28T03:11:20;8.25;;;2.70;;
62724;SDS011;49026;52.600;4.694;2023-02-28T03:24:08;8.07;;;2.47;;
62724;SDS011;49026;52.600;4.694;2023-02-28T03:26:43;9.30;;;2.75;;
62724;SDS011;49026;52.600;4.694;2023-02-28T03:31:50;9.07;;;2.40;;
62724;SDS011;49026;52.600;4.694;2023-02-28T03:36:55;10.13;;;2.20;;
62724;SDS011;49026;52.600;4.694;2023-02-28T03:39:28;6.32;;;2.28;;
62724;SDS011;49026;52.600;4.694;2023-02-28T03:42:02;5.93;;;2.30;;
62724;SDS011;49026;52.600;4.694;2023-02-28T03:44:38;6.70;;;2.13;;
62724;SDS011;49026;52.600;4.694;2023-02-28T03:47:11;9.65;;;2.60;;
62724;SDS011;49026;52.600;4.694;2023-02-28T03:49:41;11.20;;;2.53;;
62724;SDS011;49026;52.600;4.694;2023-02-28T03:52:12;10.45;;;2.58;;
62724;SDS011;49026;52.600;4.694;2023-02-28T03:54:43;8.85;;;2.58;;
62724;SDS011;49026;52.600;4.694;2023-02-28T03:57:36;11.32;;;2.90;;
62724;SDS011;49026;52.600;4.694;2023-02-28T04:00:07;6.13;;;2.63;;
62724;SDS011;49026;52.600;4.694;2023-02-28T04:02:39;8.70;;;2.35;;
62724;SDS011;49026;52.600;4.694;2023-02-28T04:05:05;11.48;;;2.60;;
62724;SDS011;49026;52.600;4.694;2023-02-28T04:07:34;10.70;;;2.97;;
62724;SDS011;49026;52.600;4.694;2023-02-28T04:09:59;7.53;;;2.80;;
62724;SDS011;49026;52.600;4.694;2023-02-28T04:12:25;7.07;;;2.70;;
62724;SDS011;49026;52.600;4.694;2023-02-28T04:14:52;16.45;;;2.38;;
62724;SDS011;49026;52.600;4.694;2023-02-28T04:17:21;13.38;;;2.92;;
62724;SDS011;49026;52.600;4.694;2023-02-28T04:19:48;8.38;;;2.17;;
62724;SDS011;49026;52.600;4.694;2023-02-28T04:22:14;9.13;;;2.58;;
62724;SDS011;49026;52.600;4.694;2023-02-28T04:24:42;17.17;;;2.85;;
62724;SDS011;49026;52.600;4.694;2023-02-28T04:27:08;17.70;;;2.90;;
62724;SDS011;49026;52.600;4.694;2023-02-28T04:29:34;15.70;;;2.40;;
62724;SDS011;49026;52.600;4.694;2023-02-28T04:32:00;5.38;;;2.22;;
62724;SDS011;49026;52.600;4.694;2023-02-28T04:34:26;11.38;;;2.75;;
62724;SDS011;49026;52.600;4.694;2023-02-28T04:36:53;14.20;;;2.47;;
62724;SDS011;49026;52.600;4.694;2023-02-28T04:39:20;17.42;;;2.92;;
62724;SDS011;49026;52.600;4.694;2023-02-28T04:41:48;9.07;;;2.50;;
62724;SDS011;49026;52.600;4.694;2023-02-28T04:44:14;8.90;;;2.60;;
62724;SDS011;49026;52.600;4.694;2023-02-28T04:46:41;8.02;;;2.22;;
62724;SDS011;49026;52.600;4.694;2023-02-28T04:49:07;7.35;;;2.35;;
62724;SDS011;49026;52.600;4.694;2023-02-28T04:51:35;11.82;;;2.05;;
62724;SDS011;49026;52.600;4.694;2023-02-28T04:54:00;14.02;;;2.63;;
62724;SDS011;49026;52.600;4.694;2023-02-28T04:56:26;10.30;;;2.70;;
62724;SDS011;49026;52.600;4.694;2023-02-28T04:58:53;7.88;;;2.40;;
62724;SDS011;49026;52.600;4.694;2023-02-28T05:03:55;4.32;;;2.08;;
62724;SDS011;49026;52.600;4.694;2023-02-28T05:06:23;17.85;;;3.53;;
62724;SDS011;49026;52.600;4.694;2023-02-28T05:08:51;12.47;;;3.03;;
62724;SDS011;49026;52.600;4.694;2023-02-28T05:11:18;6.13;;;2.60;;
62724;SDS011;49026;52.600;4.694;2023-02-28T05:13:46;10.15;;;3.75;;
62724;SDS011;49026;52.600;4.694;2023-02-28T05:16:12;15.18;;;3.28;;
62724;SDS011;49026;52.600;4.694;2023-02-28T05:18:38;12.10;;;3.40;;
62724;SDS011;49026;52.600;4.694;2023-02-28T05:21:03;9.13;;;2.47;;
62724;SDS011;49026;52.600;4.694;2023-02-28T05:23:29;5.05;;;2.53;;
62724;SDS011;49026;52.600;4.694;2023-02-28T05:25:59;15.52;;;3.28;;
62724;SDS011;49026;52.600;4.694;2023-02-28T05:28:25;6.38;;;2.28;;
62724;SDS011;49026;52.600;4.694;2023-02-28T05:30:50;15.73;;;2.72;;
62724;SDS011;49026;52.600;4.694;2023-02-28T05:33:15;12.05;;;3.03;;
62724;SDS011;49026;52.600;4.694;2023-02-28T05:35:41;6.38;;;2.75;;
62724;SDS011;49026;52.600;4.694;2023-02-28T05:38:10;13.35;;;3.25;;
62724;SDS011;49026;52.600;4.694;2023-02-28T05:40:37;10.13;;;2.72;;
62724;SDS011;49026;52.600;4.694;2023-02-28T05:43:04;11.13;;;3.15;;
62724;SDS011;49026;52.600;4.694;2023-02-28T05:45:29;11.40;;;3.05;;
62724;SDS011;49026;52.600;4.694;2023-02-28T05:48:02;6.32;;;3.08;;
62724;SDS011;49026;52.600;4.694;2023-02-28T05:50:27;9.18;;;3.00;;
62724;SDS011;49026;52.600;4.694;2023-02-28T05:52:54;11.68;;;3.67;;
62724;SDS011;49026;52.600;4.694;2023-02-28T05:55:22;11.38;;;2.80;;
62724;SDS011;49026;52.600;4.694;2023-02-28T05:57:47;7.15;;;2.53;;
62724;SDS011;49026;52.600;4.694;2023-02-28T06:00:15;15.20;;;3.10;;
62724;SDS011;49026;52.600;4.694;2023-02-28T06:02:42;14.05;;;3.38;;
62724;SDS011;49026;52.600;4.694;2023-02-28T06:05:10;13.32;;;3.47;;
62724;SDS011;49026;52.600;4.694;2023-02-28T06:07:41;9.45;;;3.72;;
62724;SDS011;49026;52.600;4.694;2023-02-28T06:10:08;15.82;;;3.45;;
62724;SDS011;49026;52.600;4.694;2023-02-28T06:12:37;9.30;;;2.78;;
62724;SDS011;49026;52.600;4.694;2023-02-28T06:15:03;12.50;;;3.20;;
62724;SDS011;49026;52.600;4.694;2023-02-28T06:17:28;8.93;;;3.38;;
62724;SDS011;49026;52.600;4.694;2023-02-28T06:19:54;10.05;;;3.13;;
62724;SDS011;49026;52.600;4.694;2023-02-28T06:22:19;10.82;;;3.53;;
62724;SDS011;49026;52.600;4.694;2023-02-28T06:24:44;10.40;;;3.10;;
62724;SDS011;49026;52.600;4.694;2023-02-28T06:27:10;15.23;;;3.92;;
62724;SDS011;49026;52.600;4.694;2023-02-28T06:29:38;12.60;;;3.78;;
62724;SDS011;49026;52.600;4.694;2023-02-28T06:32:08;9.05;;;3.83;;
62724;SDS011;49026;52.600;4.694;2023-02-28T06:34:36;14.52;;;4.28;;
62724;SDS011;49026;52.600;4.694;2023-02-28T06:37:03;16.42;;;4.30;;
62724;SDS011;49026;52.600;4.694;2023-02-28T06:39:31;12.13;;;3.33;;
62724;SDS011;49026;52.600;4.694;2023-02-28T06:41:56;13.20;;;4.05;;
62724;SDS011;49026;52.600;4.694;2023-02-28T06:44:24;7.40;;;3.88;;
62724;SDS011;49026;52.600;4.694;2023-02-28T06:46:52;15.52;;;4.53;;
62724;SDS011;49026;52.600;4.694;2023-02-28T06:49:17;8.35;;;4.28;;
62724;SDS011;49026;52.600;4.694;2023-02-28T06:51:44;11.32;;;4.13;;
62724;SDS011;49026;52.600;4.694;2023-02-28T06:54:10;5.57;;;3.63;;
62724;SDS011;49026;52.600;4.694;2023-02-28T06:56:36;8.85;;;4.68;;
62724;SDS011;49026;52.600;4.694;2023-02-28T06:59:01;7.93;;;3.72;;
62724;SDS011;49026;52.600;4.694;2023-02-28T07:01:28;10.93;;;4.47;;
62724;SDS011;49026;52.600;4.694;2023-02-28T07:03:54;9.48;;;4.80;;
62724;SDS011;49026;52.600;4.694;2023-02-28T07:06:20;9.57;;;4.53;;
62724;SDS011;49026;52.600;4.694;2023-02-28T07:08:47;11.52;;;4.75;;
62724;SDS011;49026;52.600;4.694;2023-02-28T07:11:16;8.68;;;3.00;;
62724;SDS011;49026;52.600;4.694;2023-02-28T07:13:41;11.63;;;3.78;;
62724;SDS011;49026;52.600;4.694;2023-02-28T07:16:07;10.82;;;5.03;;
62724;SDS011;49026;52.600;4.694;2023-02-28T07:18:37;13.60;;;5.43;;
62724;SDS011;49026;52.600;4.694;2023-02-28T07:21:06;12.25;;;5.20;;
62724;SDS011;49026;52.600;4.694;2023-02-28T07:23:35;6.45;;;4.07;;
62724;SDS011;49026;52.600;4.694;2023-02-28T07:26:03;12.38;;;7.65;;
62724;SDS011;49026;52.600;4.694;2023-02-28T07:28:29;8.55;;;4.82;;
62724;SDS011;49026;52.600;4.694;2023-02-28T07:30:54;9.13;;;5.15;;
62724;SDS011;49026;52.600;4.694;2023-02-28T07:33:20;7.88;;;4.93;;
62724;SDS011;49026;52.600;4.694;2023-02-28T07:35:45;8.18;;;5.15;;
62724;SDS011;49026;52.600;4.694;2023-02-28T07:38:10;10.88;;;4.20;;
62724;SDS011;49026;52.600;4.694;2023-02-28T07:40:37;7.32;;;4.10;;
62724;SDS011;49026;52.600;4.694;2023-02-28T07:43:02;4.93;;;2.75;;
62724;SDS011;49026;52.600;4.694;2023-02-28T07:45:31;10.07;;;5.60;;
62724;SDS011;49026;52.600;4.694;2023-02-28T07:47:59;6.85;;;4.28;;
62724;SDS011;49026;52.600;4.694;2023-02-28T07:50:42;7.72;;;3.60;;
62724;SDS011;49026;52.600;4.694;2023-02-28T07:53:07;6.57;;;4.35;;
62724;SDS011;49026;52.600;4.694;2023-02-28T07:55:33;4.85;;;2.45;;
62724;SDS011;49026;52.600;4.694;2023-02-28T07:58:01;10.90;;;5.88;;
62724;SDS011;49026;52.600;4.694;2023-02-28T08:00:26;5.68;;;3.28;;
62724;SDS011;49026;52.600;4.694;2023-02-28T08:02:51;7.50;;;4.13;;
62724;SDS011;49026;52.600;4.694;2023-02-28T08:05:16;8.27;;;4.72;;
62724;SDS011;49026;52.600;4.694;2023-02-28T08:07:44;8.23;;;5.20;;
62724;SDS011;49026;52.600;4.694;2023-02-28T08:10:10;14.30;;;7.10;;
62724;SDS011;49026;52.600;4.694;2023-02-28T08:12:35;10.95;;;5.22;;
62724;SDS011;49026;52.600;4.694;2023-02-28T08:15:03;13.05;;;7.88;;
62724;SDS011;49026;52.600;4.694;2023-02-28T08:17:31;7.57;;;4.38;;
62724;SDS011;49026;52.600;4.694;2023-02-28T08:19:56;11.05;;;6.93;;
62724;SDS011;49026;52.600;4.694;2023-02-28T08:22:21;12.00;;;7.35;;
62724;SDS011;49026;52.600;4.694;2023-02-28T08:24:47;16.75;;;6.45;;
62724;SDS011;49026;52.600;4.694;2023-02-28T08:27:12;11.20;;;5.93;;
62724;SDS011;49026;52.600;4.694;2023-02-28T08:29:38;12.95;;;8.80;;
62724;SDS011;49026;52.600;4.694;2023-02-28T08:32:04;14.05;;;7.72;;
62724;SDS011;49026;52.600;4.694;2023-02-28T08:34:30;14.00;;;5.93;;
62724;SDS011;49026;52.600;4.694;2023-02-28T08:36:56;12.88;;;7.35;;
62724;SDS011;49026;52.600;4.694;2023-02-28T08:39:21;13.65;;;7.65;;
62724;SDS011;49026;52.600;4.694;2023-02-28T08:41:46;10.32;;;6.88;;
62724;SDS011;49026;52.600;4.694;2023-02-28T08:44:11;7.50;;;4.30;;
62724;SDS011;49026;52.600;4.694;2023-02-28T08:46:37;9.30;;;5.97;;
62724;SDS011;49026;52.600;4.694;2023-02-28T08:49:05;10.10;;;6.07;;
62724;SDS011;49026;52.600;4.694;2023-02-28T08:51:38;9.10;;;5.60;;
62724;SDS011;49026;52.600;4.694;2023-02-28T08:54:03;9.10;;;4.95;;
62724;SDS011;49026;52.600;4.694;2023-02-28T08:56:29;6.57;;;3.55;;
62724;SDS011;49026;52.600;4.694;2023-02-28T08:58:57;6.75;;;4.07;;
62724;SDS011;49026;52.600;4.694;2023-02-28T09:03:52;9.13;;;4.95;;
62724;SDS011;49026;52.600;4.694;2023-02-28T09:06:22;3.97;;;3.00;;
62724;SDS011;49026;52.600;4.694;2023-02-28T09:08:49;3.50;;;2.65;;
62724;SDS011;49026;52.600;4.694;2023-02-28T09:11:15;10.07;;;6.13;;
62724;SDS011;49026;52.600;4.694;2023-02-28T09:13:40;7.88;;;4.22;;
62724;SDS011;49026;52.600;4.694;2023-02-28T09:16:07;6.38;;;3.72;;
62724;SDS011;49026;52.600;4.694;2023-02-28T09:18:35;9.52;;;4.97;;
62724;SDS011;49026;52.600;4.694;2023-02-28T09:21:05;9.43;;;4.47;;
62724;SDS011;49026;52.600;4.694;2023-02-28T09:23:31;7.75;;;4.57;;
62724;SDS011;49026;52.600;4.694;2023-02-28T09:25:56;4.75;;;2.85;;
62724;SDS011;49026;52.600;4.694;2023-02-28T09:28:24;9.23;;;5.85;;
62724;SDS011;49026;52.600;4.694;2023-02-28T09:30:51;12.73;;;4.75;;
62724;SDS011;49026;52.600;4.694;2023-02-28T09:33:18;7.78;;;4.47;;
62724;SDS011;49026;52.600;4.694;2023-02-28T09:35:47;8.77;;;5.97;;
62724;SDS011;49026;52.600;4.694;2023-02-28T09:38:15;8.82;;;5.93;;
62724;SDS011;49026;52.600;4.694;2023-02-28T09:40:52;13.35;;;8.00;;
62724;SDS011;49026;52.600;4.694;2023-02-28T09:43:21;15.63;;;9.20;;
62724;SDS011;49026;52.600;4.694;2023-02-28T09:46:00;13.70;;;8.77;;
62724;SDS011;49026;52.600;4.694;2023-02-28T09:48:37;13.50;;;7.85;;
62724;SDS011;49026;52.600;4.694;2023-02-28T09:51:14;17.67;;;10.45;;
62724;SDS011;49026;52.600;4.694;2023-02-28T09:53:51;14.52;;;9.32;;
62724;SDS011;49026;52.600;4.694;2023-02-28T09:56:19;14.52;;;8.75;;
62724;SDS011;49026;52.600;4.694;2023-02-28T10:06:48;12.70;;;6.97;;
62724;SDS011;49026;52.600;4.694;2023-02-28T10:09:21;20.65;;;10.32;;
62724;SDS011;49026;52.600;4.694;2023-02-28T10:11:50;15.88;;;9.93;;
62724;SDS011;49026;52.600;4.694;2023-02-28T10:14:18;11.98;;;6.93;;
62724;SDS011;49026;52.600;4.694;2023-02-28T10:16:47;11.68;;;7.13;;
62724;SDS011;49026;52.600;4.694;2023-02-28T10:22:36;16.92;;;8.27;;
62724;SDS011;49026;52.600;4.694;2023-02-28T10:25:21;14.45;;;7.88;;
62724;SDS011;49026;52.600;4.694;2023-02-28T10:27:49;10.75;;;7.43;;
62724;SDS011;49026;52.600;4.694;2023-02-28T10:30:18;12.82;;;7.65;;
62724;SDS011;49026;52.600;4.694;2023-02-28T10:32:47;11.85;;;6.60;;
62724;SDS011;49026;52.600;4.694;2023-02-28T10:35:17;13.05;;;7.93;;
62724;SDS011;49026;52.600;4.694;2023-02-28T10:37:49;11.55;;;6.40;;
62724;SDS011;49026;52.600;4.694;2023-02-28T10:42:55;13.25;;;7.65;;
62724;SDS011;49026;52.600;4.694;2023-02-28T10:45:52;12.98;;;5.13;;
62724;SDS011;49026;52.600;4.694;2023-02-28T10:48:49;10.63;;;5.80;;
62724;SDS011;49026;52.600;4.694;2023-02-28T10:51:24;11.43;;;5.72;;
62724;SDS011;49026;52.600;4.694;2023-02-28T10:53:50;11.68;;;7.05;;
62724;SDS011;49026;52.600;4.694;2023-02-28T10:56:20;10.02;;;5.78;;
62724;SDS011;49026;52.600;4.694;2023-02-28T11:03:55;7.78;;;3.90;;
62724;SDS011;49026;52.600;4.694;2023-02-28T11:06:23;6.20;;;3.80;;
62724;SDS011;49026;52.600;4.694;2023-02-28T11:08:53;4.37;;;2.47;;
62724;SDS011;49026;52.600;4.694;2023-02-28T11:11:26;7.25;;;4.15;;
62724;SDS011;49026;52.600;4.694;2023-02-28T11:13:54;4.63;;;2.42;;
62724;SDS011;49026;52.600;4.694;2023-02-28T11:16:22;7.82;;;4.28;;
62724;SDS011;49026;52.600;4.694;2023-02-28T11:18:59;6.90;;;3.40;;
62724;SDS011;49026;52.600;4.694;2023-02-28T11:23:56;7.15;;;3.65;;
62724;SDS011;49026;52.600;4.694;2023-02-28T11:26:38;5.93;;;1.92;;
62724;SDS011;49026;52.600;4.694;2023-02-28T11:29:21;5.30;;;3.00;;
62724;SDS011;49026;52.600;4.694;2023-02-28T11:34:38;7.32;;;3.72;;
62724;SDS011;49026;52.600;4.694;2023-02-28T11:37:05;5.75;;;3.40;;
62724;SDS011;49026;52.600;4.694;2023-02-28T11:39:37;2.60;;;1.73;;
62724;SDS011;49026;52.600;4.694;2023-02-28T11:42:06;7.57;;;2.60;;
62724;SDS011;49026;52.600;4.694;2023-02-28T11:47:47;4.93;;;2.42;;
62724;SDS011;49026;52.600;4.694;2023-02-28T11:55:46;5.43;;;2.97;;
62724;SDS011;49026;52.600;4.694;2023-02-28T12:01:01;8.05;;;3.65;;
62724;SDS011;49026;52.600;4.694;2023-02-28T12:06:28;2.95;;;2.03;;
62724;SDS011;49026;52.600;4.694;2023-02-28T12:11:54;5.60;;;2.70;;
62724;SDS011;49026;52.600;4.694;2023-02-28T12:28:40;4.25;;;2.38;;
62724;SDS011;49026;52.600;4.694;2023-02-28T12:31:11;3.50;;;2.20;;
62724;SDS011;49026;52.600;4.694;2023-02-28T12:33:48;6.45;;;1.73;;
62724;SDS011;49026;52.600;4.694;2023-02-28T12:36:20;4.18;;;2.40;;
62724;SDS011;49026;52.600;4.694;2023-02-28T12:38:58;4.03;;;1.98;;
62724;SDS011;49026;52.600;4.694;2023-02-28T12:41:47;4.28;;;1.65;;
62724;SDS011;49026;52.600;4.694;2023-02-28T12:44:23;4.00;;;2.03;;
62724;SDS011;49026;52.600;4.694;2023-02-28T12:46:55;3.58;;;2.20;;
62724;SDS011;49026;52.600;4.694;2023-02-28T12:49:45;3.78;;;2.03;;
62724;SDS011;49026;52.600;4.694;2023-02-28T12:52:23;5.90;;;2.13;;
62724;SDS011;49026;52.600;4.694;2023-02-28T12:54:57;4.07;;;2.30;;
62724;SDS011;49026;52.600;4.694;2023-02-28T12:57:34;4.85;;;2.40;;
62724;SDS011;49026;52.600;4.694;2023-02-28T13:00:08;4.30;;;2.20;;
62724;SDS011;49026;52.600;4.694;2023-02-28T13:10:43;2.92;;;1.77;;
62724;SDS011;49026;52.600;4.694;2023-02-28T13:13:14;3.65;;;1.85;;
62724;SDS011;49026;52.600;4.694;2023-02-28T13:15:57;3.25;;;1.90;;
62724;SDS011;49026;52.600;4.694;2023-02-28T13:21:07;5.60;;;1.95;;
62724;SDS011;49026;52.600;4.694;2023-02-28T13:26:14;5.03;;;2.10;;
62724;SDS011;49026;52.600;4.694;2023-02-28T13:31:14;4.13;;;2.05;;
62724;SDS011;49026;52.600;4.694;2023-02-28T13:36:27;6.65;;;2.17;;
62724;SDS011;49026;52.600;4.694;2023-02-28T13:38:55;4.65;;;2.47;;
62724;SDS011;49026;52.600;4.694;2023-02-28T13:44:03;4.53;;;1.92;;
62724;SDS011;49026;52.600;4.694;2023-02-28T13:46:29;4.88;;;2.17;;
62724;SDS011;49026;52.600;4.694;2023-02-28T13:48:56;2.83;;;1.77;;
62724;SDS011;49026;52.600;4.694;2023-02-28T13:54:36;3.53;;;1.45;;
62724;SDS011;49026;52.600;4.694;2023-02-28T13:57:34;3.05;;;1.70;;
62724;SDS011;49026;52.600;4.694;2023-02-28T14:02:54;4.72;;;2.50;;
62724;SDS011;49026;52.600;4.694;2023-02-28T14:05:32;3.97;;;2.20;;
62724;SDS011;49026;52.600;4.694;2023-02-28T14:07:59;2.53;;;1.75;;
62724;SDS011;49026;52.600;4.694;2023-02-28T14:10:31;4.63;;;2.33;;
62724;SDS011;49026;52.600;4.694;2023-02-28T14:15:59;4.28;;;1.80;;
62724;SDS011;49026;52.600;4.694;2023-02-28T14:18:29;6.97;;;1.80;;
62724;SDS011;49026;52.600;4.694;2023-02-28T14:20:58;4.05;;;1.80;;
62724;SDS011;49026;52.600;4.694;2023-02-28T14:31:44;4.55;;;1.75;;
62724;SDS011;49026;52.600;4.694;2023-02-28T14:34:40;3.60;;;1.80;;
62724;SDS011;49026;52.600;4.694;2023-02-28T14:37:14;2.17;;;1.55;;
62724;SDS011;49026;52.600;4.694;2023-02-28T14:39:47;2.28;;;1.35;;
62724;SDS011;49026;52.600;4.694;2023-02-28T14:42:34;3.35;;;1.70;;
62724;SDS011;49026;52.600;4.694;2023-02-28T14:45:16;3.72;;;2.10;;
62724;SDS011;49026;52.600;4.694;2023-02-28T14:47:43;3.40;;;1.52;;
62724;SDS011;49026;52.600;4.694;2023-02-28T14:50:17;1.40;;;1.10;;
62724;SDS011;49026;52.600;4.694;2023-02-28T14:52:47;3.45;;;1.58;;
62724;SDS011;49026;52.600;4.694;2023-02-28T14:55:19;3.58;;;1.83;;
62724;SDS011;49026;52.600;4.694;2023-02-28T14:57:53;3.85;;;1.95;;
62724;SDS011;49026;52.600;4.694;2023-02-28T15:00:27;3.13;;;1.73;;
62724;SDS011;49026;52.600;4.694;2023-02-28T15:02:57;2.50;;;1.80;;
62724;SDS011;49026;52.600;4.694;2023-02-28T15:05:33;3.67;;;1.90;;
62724;SDS011;49026;52.600;4.694;2023-02-28T15:10:30;2.63;;;1.60;;
62724;SDS011;49026;52.600;4.694;2023-02-28T15:13:03;3.00;;;1.83;;
62724;SDS011;49026;52.600;4.694;2023-02-28T15:18:13;3.25;;;1.52;;
62724;SDS011;49026;52.600;4.694;2023-02-28T15:20:52;2.50;;;1.58;;
62724;SDS011;49026;52.600;4.694;2023-02-28T15:23:19;7.35;;;1.80;;
62724;SDS011;49026;52.600;4.694;2023-02-28T15:25:46;2.30;;;1.45;;
62724;SDS011;49026;52.600;4.694;2023-02-28T15:28:14;7.18;;;1.65;;
62724;SDS011;49026;52.600;4.694;2023-02-28T15:30:50;7.05;;;2.00;;
62724;SDS011;49026;52.600;4.694;2023-02-28T15:33:24;3.70;;;1.58;;
62724;SDS011;49026;52.600;4.694;2023-02-28T15:38:40;1.85;;;1.63;;
62724;SDS011;49026;52.600;4.694;2023-02-28T15:41:20;3.88;;;1.60;;
62724;SDS011;49026;52.600;4.694;2023-02-28T15:44:24;2.13;;;1.65;;
62724;SDS011;49026;52.600;4.694;2023-02-28T15:46:55;2.08;;;1.50;;
62724;SDS011;49026;52.600;4.694;2023-02-28T15:49:29;2.33;;;1.52;;
62724;SDS011;49026;52.600;4.694;2023-02-28T15:52:04;2.78;;;1.67;;
62724;SDS011;49026;52.600;4.694;2023-02-28T15:54:33;3.00;;;1.95;;
62724;SDS011;49026;52.600;4.694;2023-02-28T15:57:13;2.53;;;1.83;;
62724;SDS011;49026;52.600;4.694;2023-02-28T15:59:55;5.28;;;1.90;;
62724;SDS011;49026;52.600;4.694;2023-02-28T16:02:29;4.25;;;1.83;;
62724;SDS011;49026;52.600;4.694;2023-02-28T16:07:34;1.77;;;1.20;;
62724;SDS011;49026;52.600;4.694;2023-02-28T16:10:01;2.63;;;1.70;;
62724;SDS011;49026;52.600;4.694;2023-02-28T16:12:27;2.58;;;1.90;;
62724;SDS011;49026;52.600;4.694;2023-02-28T16:14:57;2.85;;;1.75;;
62724;SDS011;49026;52.600;4.694;2023-02-28T16:17:28;4.25;;;1.70;;
62724;SDS011;49026;52.600;4.694;2023-02-28T16:19:56;4.60;;;1.80;;
62724;SDS011;49026;52.600;4.694;2023-02-28T16:22:23;2.83;;;1.45;;
62724;SDS011;49026;52.600;4.694;2023-02-28T16:24:50;2.38;;;1.50;;
62724;SDS011;49026;52.600;4.694;2023-02-28T16:27:18;2.58;;;1.70;;
62724;SDS011;49026;52.600;4.694;2023-02-28T16:29:47;4.22;;;1.85;;
62724;SDS011;49026;52.600;4.694;2023-02-28T16:32:14;8.20;;;1.98;;
62724;SDS011;49026;52.600;4.694;2023-02-28T16:34:40;4.40;;;2.13;;
62724;SDS011;49026;52.600;4.694;2023-02-28T16:37:13;5.07;;;1.95;;
62724;SDS011;49026;52.600;4.694;2023-02-28T16:39:41;4.90;;;1.98;;
62724;SDS011;49026;52.600;4.694;2023-02-28T16:42:10;2.75;;;1.80;;
62724;SDS011;49026;52.600;4.694;2023-02-28T16:44:58;7.72;;;2.10;;
62724;SDS011;49026;52.600;4.694;2023-02-28T16:47:26;2.95;;;1.90;;
62724;SDS011;49026;52.600;4.694;2023-02-28T16:49:51;5.57;;;2.60;;
62724;SDS011;49026;52.600;4.694;2023-02-28T16:52:17;3.35;;;2.00;;
62724;SDS011;49026;52.600;4.694;2023-02-28T16:54:42;5.78;;;2.05;;
62724;SDS011;49026;52.600;4.694;2023-02-28T16:57:26;7.68;;;2.50;;
62724;SDS011;49026;52.600;4.694;2023-02-28T16:59:51;4.45;;;2.33;;
62724;SDS011;49026;52.600;4.694;2023-02-28T17:02:17;6.90;;;3.10;;
62724;SDS011;49026;52.600;4.694;2023-02-28T17:04:49;6.18;;;2.33;;
62724;SDS011;49026;52.600;4.694;2023-02-28T17:07:15;3.63;;;2.65;;
62724;SDS011;49026;52.600;4.694;2023-02-28T17:09:41;4.22;;;2.50;;
62724;SDS011;49026;52.600;4.694;2023-02-28T17:12:10;4.22;;;2.63;;
62724;SDS011;49026;52.600;4.694;2023-02-28T17:14:41;4.93;;;3.00;;
62724;SDS011;49026;52.600;4.694;2023-02-28T17:17:09;7.57;;;3.22;;
62724;SDS011;49026;52.600;4.694;2023-02-28T17:19:40;6.25;;;2.95;;
62724;SDS011;49026;52.600;4.694;2023-02-28T17:22:07;6.47;;;2.72;;
62724;SDS011;49026;52.600;4.694;2023-02-28T17:24:33;7.40;;;3.10;;
62724;SDS011;49026;52.600;4.694;2023-02-28T17:26:58;6.47;;;3.72;;
62724;SDS011;49026;52.600;4.694;2023-02-28T17:29:24;5.78;;;2.75;;
62724;SDS011;49026;52.600;4.694;2023-02-28T17:31:49;4.60;;;3.20;;